Hlavní strana
METAR-TAF:

METAR-TAF

Letiště :

Damašek, Sýrie

zeměpisná šířka: 33-25N, zeměpisná délka: 036-31E, výška: 608 m

Aktuální stav počasí

Zpráva byla vytvořena před 30 minutami, v 11:00 UTC
vítr z různých směrů 3 kt
Teplota 15°C
Vlhkost vzduchu 59%
Tlak 1015 hPa
Viditelnost 10 km a více
Skoro jasno ve výšce 3000 ft
Polojasno ve výšce 20000 ft

METAR: OSDI 101100Z VRB03KT 9999 FEW030 TCU SCT200 15/07 Q1015

Čas: 13:30 (11:30 UTC)

Předpověď počasí

Předpověď platná od 10 v 06 UTC do 11 v 12 UTC
vítr z různých směrů 3 kt
Viditelnost: 7000 m
Dočasný
od 10 v 12 UTC do 10 v 18 UTC
Jihozápadní vítr 10 kt
Viditelnost 10 km a více
Skoro jasno ve výšce 3000 ft
Polojasno ve výšce 10000 ft

TAF: OSDI 1006/1112 VRB03KT 7000 TEMPO 1012/1018 22010KT 9999 FEW030 SCT100

Stav a předpovědi počasí z více než 4 000 letišť (zprávy METAR a TAF).

Červené a žluté tečky na mapě představují dostupné meteorologické stanice.

Když kurzor umístíte na tečku, zobrazí se název stanice.

Pak kliknutím zobrazíte stav a předpověď počasí.

Chcete-li změnit mapu, kliknutím na zelené tlačítko se znaménkem +mapu přiblížíte, kliknutím na zelené tlačítko se znaménkem – mapu oddálíte a kliknutím na zelené šipky přejdete na sousední mapy.


METAR-TAF: